sensor_id;sensor_type;location;lat;lon;timestamp;temperature;humidity
12254;DHT22;6189;52.526;13.390;2022-09-09T00:02:39;17.50;99.90
12254;DHT22;6189;52.526;13.390;2022-09-09T00:05:33;17.40;99.90
12254;DHT22;6189;52.526;13.390;2022-09-09T00:08:33;17.40;99.90
12254;DHT22;6189;52.526;13.390;2022-09-09T00:11:28;17.40;99.90
12254;DHT22;6189;52.526;13.390;2022-09-09T00:14:22;17.40;99.90
12254;DHT22;6189;52.526;13.390;2022-09-09T00:17:14;17.30;99.90
12254;DHT22;6189;52.526;13.390;2022-09-09T00:20:11;17.20;99.90
12254;DHT22;6189;52.526;13.390;2022-09-09T00:23:06;17.10;99.90
12254;DHT22;6189;52.526;13.390;2022-09-09T00:26:04;17.10;99.90
12254;DHT22;6189;52.526;13.390;2022-09-09T00:28:57;17.10;99.90
12254;DHT22;6189;52.526;13.390;2022-09-09T00:31:45;17.10;99.90
12254;DHT22;6189;52.526;13.390;2022-09-09T00:34:31;17.10;99.90
12254;DHT22;6189;52.526;13.390;2022-09-09T00:37:19;17.10;99.90
12254;DHT22;6189;52.526;13.390;2022-09-09T00:40:17;17.10;99.90
12254;DHT22;6189;52.526;13.390;2022-09-09T00:43:18;17.10;99.90
12254;DHT22;6189;52.526;13.390;2022-09-09T00:46:21;17.10;99.90
12254;DHT22;6189;52.526;13.390;2022-09-09T00:49:15;17.00;99.90
12254;DHT22;6189;52.526;13.390;2022-09-09T00:52:12;17.00;99.90
12254;DHT22;6189;52.526;13.390;2022-09-09T00:55:07;17.00;99.90
12254;DHT22;6189;52.526;13.390;2022-09-09T00:57:56;16.90;99.90
12254;DHT22;6189;52.526;13.390;2022-09-09T01:00:44;17.00;99.90
12254;DHT22;6189;52.526;13.390;2022-09-09T01:03:37;17.00;99.90
12254;DHT22;6189;52.526;13.390;2022-09-09T01:06:29;17.00;99.90
12254;DHT22;6189;52.526;13.390;2022-09-09T01:09:18;17.00;99.90
12254;DHT22;6189;52.526;13.390;2022-09-09T01:12:09;17.00;99.90
12254;DHT22;6189;52.526;13.390;2022-09-09T01:15:07;17.00;99.90
12254;DHT22;6189;52.526;13.390;2022-09-09T01:17:59;17.00;99.90
12254;DHT22;6189;52.526;13.390;2022-09-09T01:20:54;17.00;99.90
12254;DHT22;6189;52.526;13.390;2022-09-09T01:26:58;17.10;99.90
12254;DHT22;6189;52.526;13.390;2022-09-09T01:29:45;17.10;99.90
12254;DHT22;6189;52.526;13.390;2022-09-09T01:32:41;17.10;99.90
12254;DHT22;6189;52.526;13.390;2022-09-09T01:35:33;17.10;99.90
12254;DHT22;6189;52.526;13.390;2022-09-09T01:38:21;17.10;99.90
12254;DHT22;6189;52.526;13.390;2022-09-09T01:41:07;17.20;99.90
12254;DHT22;6189;52.526;13.390;2022-09-09T01:43:54;17.20;99.90
12254;DHT22;6189;52.526;13.390;2022-09-09T01:46:40;17.20;99.90
12254;DHT22;6189;52.526;13.390;2022-09-09T01:49:26;17.20;99.90
12254;DHT22;6189;52.526;13.390;2022-09-09T01:52:11;17.20;99.90
12254;DHT22;6189;52.526;13.390;2022-09-09T01:54:57;17.20;99.90
12254;DHT22;6189;52.526;13.390;2022-09-09T01:57:49;17.10;99.90
12254;DHT22;6189;52.526;13.390;2022-09-09T02:00:44;17.10;99.90
12254;DHT22;6189;52.526;13.390;2022-09-09T02:03:35;17.20;99.90
12254;DHT22;6189;52.526;13.390;2022-09-09T02:06:27;17.10;99.90
12254;DHT22;6189;52.526;13.390;2022-09-09T02:09:15;17.20;99.90
12254;DHT22;6189;52.526;13.390;2022-09-09T02:12:07;17.20;99.90
12254;DHT22;6189;52.526;13.390;2022-09-09T02:14:57;17.10;99.90
12254;DHT22;6189;52.526;13.390;2022-09-09T02:17:46;17.00;99.90
12254;DHT22;6189;52.526;13.390;2022-09-09T02:20:35;16.90;99.90
12254;DHT22;6189;52.526;13.390;2022-09-09T02:23:22;16.90;99.90
12254;DHT22;6189;52.526;13.390;2022-09-09T02:26:09;16.90;99.90
12254;DHT22;6189;52.526;13.390;2022-09-09T02:28:57;16.80;99.90
12254;DHT22;6189;52.526;13.390;2022-09-09T02:31:46;16.90;99.90
12254;DHT22;6189;52.526;13.390;2022-09-09T02:34:36;16.90;99.90
12254;DHT22;6189;52.526;13.390;2022-09-09T02:37:24;16.90;99.90
12254;DHT22;6189;52.526;13.390;2022-09-09T02:40:14;16.90;99.90
12254;DHT22;6189;52.526;13.390;2022-09-09T02:43:00;16.80;99.90
12254;DHT22;6189;52.526;13.390;2022-09-09T02:45:55;16.80;99.90
12254;DHT22;6189;52.526;13.390;2022-09-09T02:48:50;16.80;99.90
12254;DHT22;6189;52.526;13.390;2022-09-09T02:51:46;16.80;99.90
12254;DHT22;6189;52.526;13.390;2022-09-09T02:54:38;16.80;99.90
12254;DHT22;6189;52.526;13.390;2022-09-09T02:57:26;16.70;99.90
12254;DHT22;6189;52.526;13.390;2022-09-09T03:00:14;16.70;99.90
12254;DHT22;6189;52.526;13.390;2022-09-09T03:02:59;16.80;99.90
12254;DHT22;6189;52.526;13.390;2022-09-09T03:05:45;16.80;99.90
12254;DHT22;6189;52.526;13.390;2022-09-09T03:08:32;16.70;99.90
12254;DHT22;6189;52.526;13.390;2022-09-09T03:11:18;16.70;99.90
12254;DHT22;6189;52.526;13.390;2022-09-09T03:14:03;16.70;99.90
12254;DHT22;6189;52.526;13.390;2022-09-09T03:16:49;16.70;99.90
12254;DHT22;6189;52.526;13.390;2022-09-09T03:19:34;16.60;99.90
12254;DHT22;6189;52.526;13.390;2022-09-09T03:22:20;16.60;99.90
12254;DHT22;6189;52.526;13.390;2022-09-09T03:25:08;16.60;99.90
12254;DHT22;6189;52.526;13.390;2022-09-09T03:27:54;16.50;99.90
12254;DHT22;6189;52.526;13.390;2022-09-09T03:30:39;16.50;99.90
12254;DHT22;6189;52.526;13.390;2022-09-09T03:33:25;16.50;99.90
12254;DHT22;6189;52.526;13.390;2022-09-09T03:36:10;16.50;99.90
12254;DHT22;6189;52.526;13.390;2022-09-09T03:38:56;16.50;99.90
12254;DHT22;6189;52.526;13.390;2022-09-09T03:41:43;16.50;99.90
12254;DHT22;6189;52.526;13.390;2022-09-09T03:44:32;16.50;99.90
12254;DHT22;6189;52.526;13.390;2022-09-09T03:47:17;16.40;99.90
12254;DHT22;6189;52.526;13.390;2022-09-09T03:50:04;16.40;99.90
12254;DHT22;6189;52.526;13.390;2022-09-09T03:52:52;16.40;99.90
12254;DHT22;6189;52.526;13.390;2022-09-09T03:55:38;16.40;99.90
12254;DHT22;6189;52.526;13.390;2022-09-09T03:58:27;16.40;99.90
12254;DHT22;6189;52.526;13.390;2022-09-09T04:01:14;16.30;99.90
12254;DHT22;6189;52.526;13.390;2022-09-09T04:04:01;16.40;99.90
12254;DHT22;6189;52.526;13.390;2022-09-09T04:06:50;16.40;99.90
12254;DHT22;6189;52.526;13.390;2022-09-09T04:09:35;16.30;99.90
12254;DHT22;6189;52.526;13.390;2022-09-09T04:12:21;16.40;99.90
12254;DHT22;6189;52.526;13.390;2022-09-09T04:15:09;16.40;99.90
12254;DHT22;6189;52.526;13.390;2022-09-09T04:17:55;16.40;99.90
12254;DHT22;6189;52.526;13.390;2022-09-09T04:20:41;16.40;99.90
12254;DHT22;6189;52.526;13.390;2022-09-09T04:23:28;16.30;99.90
12254;DHT22;6189;52.526;13.390;2022-09-09T04:26:14;16.30;99.90
12254;DHT22;6189;52.526;13.390;2022-09-09T04:28:59;16.20;99.90
12254;DHT22;6189;52.526;13.390;2022-09-09T04:31:46;16.20;99.90
12254;DHT22;6189;52.526;13.390;2022-09-09T04:34:31;16.20;99.90
12254;DHT22;6189;52.526;13.390;2022-09-09T04:37:16;16.20;99.90
12254;DHT22;6189;52.526;13.390;2022-09-09T04:40:02;16.20;99.90
12254;DHT22;6189;52.526;13.390;2022-09-09T04:42:47;16.20;99.90
12254;DHT22;6189;52.526;13.390;2022-09-09T04:45:33;16.20;99.90
12254;DHT22;6189;52.526;13.390;2022-09-09T04:48:20;16.10;99.90
12254;DHT22;6189;52.526;13.390;2022-09-09T04:51:08;16.10;99.90
12254;DHT22;6189;52.526;13.390;2022-09-09T04:53:54;16.10;99.90
12254;DHT22;6189;52.526;13.390;2022-09-09T04:56:39;16.10;99.90
12254;DHT22;6189;52.526;13.390;2022-09-09T04:59:25;16.10;99.90
12254;DHT22;6189;52.526;13.390;2022-09-09T05:02:11;16.10;99.90
12254;DHT22;6189;52.526;13.390;2022-09-09T05:04:57;16.10;99.90
12254;DHT22;6189;52.526;13.390;2022-09-09T05:07:43;16.10;99.90
12254;DHT22;6189;52.526;13.390;2022-09-09T05:10:30;16.00;99.90
12254;DHT22;6189;52.526;13.390;2022-09-09T05:13:15;16.10;99.90
12254;DHT22;6189;52.526;13.390;2022-09-09T05:16:01;16.10;99.90
12254;DHT22;6189;52.526;13.390;2022-09-09T05:18:46;16.10;99.90
12254;DHT22;6189;52.526;13.390;2022-09-09T05:21:34;16.20;99.90
12254;DHT22;6189;52.526;13.390;2022-09-09T05:24:20;16.20;99.90
12254;DHT22;6189;52.526;13.390;2022-09-09T05:27:07;16.20;99.90
12254;DHT22;6189;52.526;13.390;2022-09-09T05:29:56;16.20;99.90
12254;DHT22;6189;52.526;13.390;2022-09-09T05:32:41;16.20;99.90
12254;DHT22;6189;52.526;13.390;2022-09-09T05:35:27;16.20;99.90
12254;DHT22;6189;52.526;13.390;2022-09-09T05:38:15;16.30;99.90
12254;DHT22;6189;52.526;13.390;2022-09-09T05:41:03;16.20;99.90
12254;DHT22;6189;52.526;13.390;2022-09-09T05:43:48;16.30;99.90
12254;DHT22;6189;52.526;13.390;2022-09-09T05:46:34;16.40;99.90
12254;DHT22;6189;52.526;13.390;2022-09-09T05:49:20;16.50;99.90
12254;DHT22;6189;52.526;13.390;2022-09-09T05:52:05;16.50;99.90
12254;DHT22;6189;52.526;13.390;2022-09-09T05:54:52;16.60;99.90
12254;DHT22;6189;52.526;13.390;2022-09-09T05:57:38;16.70;99.90
12254;DHT22;6189;52.526;13.390;2022-09-09T06:00:24;16.70;99.90
12254;DHT22;6189;52.526;13.390;2022-09-09T06:03:10;16.70;99.90
12254;DHT22;6189;52.526;13.390;2022-09-09T06:06:00;16.60;99.90
12254;DHT22;6189;52.526;13.390;2022-09-09T06:08:46;16.70;99.90
12254;DHT22;6189;52.526;13.390;2022-09-09T06:11:35;16.70;99.90
12254;DHT22;6189;52.526;13.390;2022-09-09T06:14:21;16.70;99.90
12254;DHT22;6189;52.526;13.390;2022-09-09T06:17:07;16.70;99.90
12254;DHT22;6189;52.526;13.390;2022-09-09T06:19:52;16.70;99.90
12254;DHT22;6189;52.526;13.390;2022-09-09T06:22:39;16.80;99.90
12254;DHT22;6189;52.526;13.390;2022-09-09T06:25:24;16.80;99.90
12254;DHT22;6189;52.526;13.390;2022-09-09T06:28:11;16.80;99.90
12254;DHT22;6189;52.526;13.390;2022-09-09T06:30:58;16.80;99.90
12254;DHT22;6189;52.526;13.390;2022-09-09T06:33:44;16.80;99.90
12254;DHT22;6189;52.526;13.390;2022-09-09T06:36:31;16.90;99.90
12254;DHT22;6189;52.526;13.390;2022-09-09T06:39:17;16.90;99.90
12254;DHT22;6189;52.526;13.390;2022-09-09T06:42:03;17.00;99.90
12254;DHT22;6189;52.526;13.390;2022-09-09T06:44:49;17.00;99.90
12254;DHT22;6189;52.526;13.390;2022-09-09T06:47:36;17.00;99.90
12254;DHT22;6189;52.526;13.390;2022-09-09T06:50:22;17.10;99.90
12254;DHT22;6189;52.526;13.390;2022-09-09T06:53:07;17.00;99.90
12254;DHT22;6189;52.526;13.390;2022-09-09T06:55:52;17.10;99.90
12254;DHT22;6189;52.526;13.390;2022-09-09T06:58:40;17.10;99.90
12254;DHT22;6189;52.526;13.390;2022-09-09T07:01:30;17.10;99.90
12254;DHT22;6189;52.526;13.390;2022-09-09T07:04:15;17.10;99.90
12254;DHT22;6189;52.526;13.390;2022-09-09T07:07:01;17.20;99.90
12254;DHT22;6189;52.526;13.390;2022-09-09T07:09:46;17.30;99.90
12254;DHT22;6189;52.526;13.390;2022-09-09T07:12:33;17.30;99.90
12254;DHT22;6189;52.526;13.390;2022-09-09T07:15:18;17.40;99.90
12254;DHT22;6189;52.526;13.390;2022-09-09T07:18:05;17.50;99.90
12254;DHT22;6189;52.526;13.390;2022-09-09T07:20:54;17.60;99.90
12254;DHT22;6189;52.526;13.390;2022-09-09T07:23:41;17.80;99.90
12254;DHT22;6189;52.526;13.390;2022-09-09T07:26:28;17.90;99.90
12254;DHT22;6189;52.526;13.390;2022-09-09T07:29:14;17.90;99.90
12254;DHT22;6189;52.526;13.390;2022-09-09T07:31:59;18.00;99.90
12254;DHT22;6189;52.526;13.390;2022-09-09T07:34:46;18.00;99.90
12254;DHT22;6189;52.526;13.390;2022-09-09T07:37:31;18.10;99.90
12254;DHT22;6189;52.526;13.390;2022-09-09T07:40:17;18.20;99.90
12254;DHT22;6189;52.526;13.390;2022-09-09T07:43:04;18.30;99.90
12254;DHT22;6189;52.526;13.390;2022-09-09T07:45:57;18.40;99.90
12254;DHT22;6189;52.526;13.390;2022-09-09T07:48:44;18.50;99.90
12254;DHT22;6189;52.526;13.390;2022-09-09T07:51:33;18.50;99.90
12254;DHT22;6189;52.526;13.390;2022-09-09T07:54:19;18.70;99.90
12254;DHT22;6189;52.526;13.390;2022-09-09T07:57:08;18.70;99.90
12254;DHT22;6189;52.526;13.390;2022-09-09T07:59:53;18.70;99.90
12254;DHT22;6189;52.526;13.390;2022-09-09T08:02:40;18.90;99.90
12254;DHT22;6189;52.526;13.390;2022-09-09T08:05:26;18.90;99.90
12254;DHT22;6189;52.526;13.390;2022-09-09T08:08:12;18.90;99.90
12254;DHT22;6189;52.526;13.390;2022-09-09T08:11:05;19.00;99.90
12254;DHT22;6189;52.526;13.390;2022-09-09T08:13:52;19.10;99.90
12254;DHT22;6189;52.526;13.390;2022-09-09T08:16:40;19.20;99.90
12254;DHT22;6189;52.526;13.390;2022-09-09T08:19:26;19.20;99.90
12254;DHT22;6189;52.526;13.390;2022-09-09T08:22:13;19.30;99.90
12254;DHT22;6189;52.526;13.390;2022-09-09T08:25:00;19.30;99.90
12254;DHT22;6189;52.526;13.390;2022-09-09T08:27:46;19.40;99.90
12254;DHT22;6189;52.526;13.390;2022-09-09T08:30:31;19.50;99.90
12254;DHT22;6189;52.526;13.390;2022-09-09T08:33:17;19.50;99.90
12254;DHT22;6189;52.526;13.390;2022-09-09T08:36:04;19.50;99.90
12254;DHT22;6189;52.526;13.390;2022-09-09T08:38:51;19.60;99.90
12254;DHT22;6189;52.526;13.390;2022-09-09T08:41:59;19.60;99.90
12254;DHT22;6189;52.526;13.390;2022-09-09T08:45:00;19.60;99.90
12254;DHT22;6189;52.526;13.390;2022-09-09T08:47:58;19.60;99.90
12254;DHT22;6189;52.526;13.390;2022-09-09T08:50:48;19.70;99.90
12254;DHT22;6189;52.526;13.390;2022-09-09T08:53:39;19.70;99.90
12254;DHT22;6189;52.526;13.390;2022-09-09T08:56:27;19.80;99.90
12254;DHT22;6189;52.526;13.390;2022-09-09T08:59:18;19.80;99.90
12254;DHT22;6189;52.526;13.390;2022-09-09T09:02:14;19.70;99.90
12254;DHT22;6189;52.526;13.390;2022-09-09T09:05:10;19.70;99.90
12254;DHT22;6189;52.526;13.390;2022-09-09T09:08:03;19.70;99.90
12254;DHT22;6189;52.526;13.390;2022-09-09T09:10:54;19.70;99.90
12254;DHT22;6189;52.526;13.390;2022-09-09T09:13:45;19.70;99.90
12254;DHT22;6189;52.526;13.390;2022-09-09T09:16:38;19.80;99.90
12254;DHT22;6189;52.526;13.390;2022-09-09T09:19:29;19.90;99.90
12254;DHT22;6189;52.526;13.390;2022-09-09T09:22:18;20.00;99.90
12254;DHT22;6189;52.526;13.390;2022-09-09T09:25:11;20.10;99.90
12254;DHT22;6189;52.526;13.390;2022-09-09T09:28:03;20.30;99.90
12254;DHT22;6189;52.526;13.390;2022-09-09T09:30:58;20.60;99.90
12254;DHT22;6189;52.526;13.390;2022-09-09T09:33:49;21.00;99.90
12254;DHT22;6189;52.526;13.390;2022-09-09T09:36:41;21.50;99.90
12254;DHT22;6189;52.526;13.390;2022-09-09T09:39:30;22.00;99.90
12254;DHT22;6189;52.526;13.390;2022-09-09T09:42:20;22.50;99.90
12254;DHT22;6189;52.526;13.390;2022-09-09T09:45:16;23.00;99.90
12254;DHT22;6189;52.526;13.390;2022-09-09T09:48:05;23.30;99.90
12254;DHT22;6189;52.526;13.390;2022-09-09T09:50:54;23.60;99.90
12254;DHT22;6189;52.526;13.390;2022-09-09T09:53:41;23.80;99.90
12254;DHT22;6189;52.526;13.390;2022-09-09T09:56:27;24.10;99.90
12254;DHT22;6189;52.526;13.390;2022-09-09T09:59:22;24.30;99.90
12254;DHT22;6189;52.526;13.390;2022-09-09T10:02:17;24.60;99.90
12254;DHT22;6189;52.526;13.390;2022-09-09T10:05:04;24.90;99.90
12254;DHT22;6189;52.526;13.390;2022-09-09T10:08:02;24.90;99.90
12254;DHT22;6189;52.526;13.390;2022-09-09T10:11:04;25.10;99.90
12254;DHT22;6189;52.526;13.390;2022-09-09T10:13:53;25.20;99.90
12254;DHT22;6189;52.526;13.390;2022-09-09T10:16:51;25.60;99.90
12254;DHT22;6189;52.526;13.390;2022-09-09T10:19:44;25.60;99.90
12254;DHT22;6189;52.526;13.390;2022-09-09T10:22:33;25.50;99.90
12254;DHT22;6189;52.526;13.390;2022-09-09T10:25:41;25.80;99.90
12254;DHT22;6189;52.526;13.390;2022-09-09T10:28:42;26.30;99.90
12254;DHT22;6189;52.526;13.390;2022-09-09T10:31:37;26.50;99.90
12254;DHT22;6189;52.526;13.390;2022-09-09T10:34:38;26.50;99.90
12254;DHT22;6189;52.526;13.390;2022-09-09T10:37:47;26.60;99.90
12254;DHT22;6189;52.526;13.390;2022-09-09T10:40:41;26.20;99.90
12254;DHT22;6189;52.526;13.390;2022-09-09T10:46:52;25.80;99.90
12254;DHT22;6189;52.526;13.390;2022-09-09T10:50:10;25.70;99.90
12254;DHT22;6189;52.526;13.390;2022-09-09T10:53:03;26.00;99.90
12254;DHT22;6189;52.526;13.390;2022-09-09T10:55:58;26.00;99.90
12254;DHT22;6189;52.526;13.390;2022-09-09T10:58:48;25.70;99.90
12254;DHT22;6189;52.526;13.390;2022-09-09T11:01:39;25.80;99.90
12254;DHT22;6189;52.526;13.390;2022-09-09T11:04:32;25.90;99.90
12254;DHT22;6189;52.526;13.390;2022-09-09T11:07:25;26.00;99.90
12254;DHT22;6189;52.526;13.390;2022-09-09T11:10:19;26.20;99.90
12254;DHT22;6189;52.526;13.390;2022-09-09T11:13:14;26.40;99.90
12254;DHT22;6189;52.526;13.390;2022-09-09T11:16:05;26.60;99.90
12254;DHT22;6189;52.526;13.390;2022-09-09T11:19:02;26.80;99.90
12254;DHT22;6189;52.526;13.390;2022-09-09T11:21:50;26.80;99.90
12254;DHT22;6189;52.526;13.390;2022-09-09T11:24:39;26.70;99.90
12254;DHT22;6189;52.526;13.390;2022-09-09T11:27:29;26.60;99.50
12254;DHT22;6189;52.526;13.390;2022-09-09T11:30:20;26.20;99.90
12254;DHT22;6189;52.526;13.390;2022-09-09T11:33:37;26.00;99.90
12254;DHT22;6189;52.526;13.390;2022-09-09T11:36:48;25.80;99.90
12254;DHT22;6189;52.526;13.390;2022-09-09T11:39:45;25.90;99.90
12254;DHT22;6189;52.526;13.390;2022-09-09T11:42:33;25.90;99.90
12254;DHT22;6189;52.526;13.390;2022-09-09T11:45:24;25.80;99.90
12254;DHT22;6189;52.526;13.390;2022-09-09T11:48:31;25.60;99.90
12254;DHT22;6189;52.526;13.390;2022-09-09T11:51:26;25.40;99.90
12254;DHT22;6189;52.526;13.390;2022-09-09T11:54:29;25.30;99.90
12254;DHT22;6189;52.526;13.390;2022-09-09T11:57:24;25.20;99.90
12254;DHT22;6189;52.526;13.390;2022-09-09T12:00:32;25.20;99.90
12254;DHT22;6189;52.526;13.390;2022-09-09T12:03:41;25.10;99.90
12254;DHT22;6189;52.526;13.390;2022-09-09T12:06:30;24.90;99.90
12254;DHT22;6189;52.526;13.390;2022-09-09T12:09:21;24.80;99.90
12254;DHT22;6189;52.526;13.390;2022-09-09T12:12:26;25.00;99.90
12254;DHT22;6189;52.526;13.390;2022-09-09T12:15:24;25.40;99.90
12254;DHT22;6189;52.526;13.390;2022-09-09T12:18:15;25.80;99.60
12254;DHT22;6189;52.526;13.390;2022-09-09T12:21:13;25.90;99.00
12254;DHT22;6189;52.526;13.390;2022-09-09T12:24:07;26.10;98.80
12254;DHT22;6189;52.526;13.390;2022-09-09T12:26:58;26.20;99.30
12254;DHT22;6189;52.526;13.390;2022-09-09T12:29:52;26.30;98.40
12254;DHT22;6189;52.526;13.390;2022-09-09T12:32:40;26.20;96.90
12254;DHT22;6189;52.526;13.390;2022-09-09T12:35:30;25.90;96.70
12254;DHT22;6189;52.526;13.390;2022-09-09T12:38:21;25.70;98.10
12254;DHT22;6189;52.526;13.390;2022-09-09T12:41:20;25.60;98.10
12254;DHT22;6189;52.526;13.390;2022-09-09T12:44:06;25.50;96.90
12254;DHT22;6189;52.526;13.390;2022-09-09T12:46:53;25.40;97.00
12254;DHT22;6189;52.526;13.390;2022-09-09T12:49:39;25.10;98.10
12254;DHT22;6189;52.526;13.390;2022-09-09T12:52:30;25.00;99.00
12254;DHT22;6189;52.526;13.390;2022-09-09T12:55:19;24.90;98.60
12254;DHT22;6189;52.526;13.390;2022-09-09T12:58:06;24.80;98.70
12254;DHT22;6189;52.526;13.390;2022-09-09T13:00:53;24.80;98.70
12254;DHT22;6189;52.526;13.390;2022-09-09T13:03:43;24.70;98.70
12254;DHT22;6189;52.526;13.390;2022-09-09T13:06:32;24.70;98.90
12254;DHT22;6189;52.526;13.390;2022-09-09T13:09:20;24.60;98.40
12254;DHT22;6189;52.526;13.390;2022-09-09T13:12:07;24.50;99.10
12254;DHT22;6189;52.526;13.390;2022-09-09T13:14:57;24.40;99.40
12254;DHT22;6189;52.526;13.390;2022-09-09T13:17:48;24.20;99.90
12254;DHT22;6189;52.526;13.390;2022-09-09T13:20:34;24.10;99.90
12254;DHT22;6189;52.526;13.390;2022-09-09T13:23:21;24.00;99.90
12254;DHT22;6189;52.526;13.390;2022-09-09T13:26:22;23.90;99.90
12254;DHT22;6189;52.526;13.390;2022-09-09T13:29:16;23.90;99.90
12254;DHT22;6189;52.526;13.390;2022-09-09T13:32:06;23.80;99.90
12254;DHT22;6189;52.526;13.390;2022-09-09T13:34:53;23.80;99.90
12254;DHT22;6189;52.526;13.390;2022-09-09T13:37:39;23.70;99.90
12254;DHT22;6189;52.526;13.390;2022-09-09T13:40:25;23.70;99.90
12254;DHT22;6189;52.526;13.390;2022-09-09T13:43:18;23.60;99.90
12254;DHT22;6189;52.526;13.390;2022-09-09T13:46:28;23.70;99.90
12254;DHT22;6189;52.526;13.390;2022-09-09T13:49:28;23.80;99.90
12254;DHT22;6189;52.526;13.390;2022-09-09T13:52:15;23.90;99.90
12254;DHT22;6189;52.526;13.390;2022-09-09T13:55:02;23.90;99.90
12254;DHT22;6189;52.526;13.390;2022-09-09T13:57:51;23.90;99.90
12254;DHT22;6189;52.526;13.390;2022-09-09T14:00:38;23.90;99.90
12254;DHT22;6189;52.526;13.390;2022-09-09T14:03:24;23.90;99.90
12254;DHT22;6189;52.526;13.390;2022-09-09T14:06:10;23.90;99.90
12254;DHT22;6189;52.526;13.390;2022-09-09T14:08:56;24.00;99.90
12254;DHT22;6189;52.526;13.390;2022-09-09T14:11:41;23.90;99.90
12254;DHT22;6189;52.526;13.390;2022-09-09T14:14:26;23.80;99.90
12254;DHT22;6189;52.526;13.390;2022-09-09T14:17:13;23.90;99.90
12254;DHT22;6189;52.526;13.390;2022-09-09T14:19:59;23.90;99.90
12254;DHT22;6189;52.526;13.390;2022-09-09T14:22:44;23.90;99.90
12254;DHT22;6189;52.526;13.390;2022-09-09T14:25:30;23.90;99.90
12254;DHT22;6189;52.526;13.390;2022-09-09T14:28:17;23.90;99.90
12254;DHT22;6189;52.526;13.390;2022-09-09T14:31:05;23.90;99.90
12254;DHT22;6189;52.526;13.390;2022-09-09T14:33:52;23.90;99.90
12254;DHT22;6189;52.526;13.390;2022-09-09T14:36:37;23.90;99.90
12254;DHT22;6189;52.526;13.390;2022-09-09T14:39:23;23.90;99.90
12254;DHT22;6189;52.526;13.390;2022-09-09T14:42:09;23.90;99.90
12254;DHT22;6189;52.526;13.390;2022-09-09T14:44:55;23.80;99.90
12254;DHT22;6189;52.526;13.390;2022-09-09T14:47:40;23.70;99.90
12254;DHT22;6189;52.526;13.390;2022-09-09T14:50:27;23.70;99.90
12254;DHT22;6189;52.526;13.390;2022-09-09T14:53:13;23.60;99.90
12254;DHT22;6189;52.526;13.390;2022-09-09T14:56:09;23.50;99.90
12254;DHT22;6189;52.526;13.390;2022-09-09T14:58:56;23.40;99.90
12254;DHT22;6189;52.526;13.390;2022-09-09T15:01:41;23.40;99.90
12254;DHT22;6189;52.526;13.390;2022-09-09T15:04:27;23.40;99.90
12254;DHT22;6189;52.526;13.390;2022-09-09T15:07:14;23.30;99.90
12254;DHT22;6189;52.526;13.390;2022-09-09T15:09:59;23.30;99.90
12254;DHT22;6189;52.526;13.390;2022-09-09T15:12:45;23.30;99.90
12254;DHT22;6189;52.526;13.390;2022-09-09T15:15:30;23.20;99.90
12254;DHT22;6189;52.526;13.390;2022-09-09T15:18:15;23.20;99.90
12254;DHT22;6189;52.526;13.390;2022-09-09T15:21:01;23.20;99.90
12254;DHT22;6189;52.526;13.390;2022-09-09T15:23:49;23.20;99.90
12254;DHT22;6189;52.526;13.390;2022-09-09T15:26:35;23.20;99.90
12254;DHT22;6189;52.526;13.390;2022-09-09T15:29:22;23.20;99.90
12254;DHT22;6189;52.526;13.390;2022-09-09T15:32:08;23.10;99.90
12254;DHT22;6189;52.526;13.390;2022-09-09T15:34:53;23.10;99.90
12254;DHT22;6189;52.526;13.390;2022-09-09T15:37:38;23.10;99.90
12254;DHT22;6189;52.526;13.390;2022-09-09T15:40:28;23.10;99.90
12254;DHT22;6189;52.526;13.390;2022-09-09T15:43:16;23.10;99.90
12254;DHT22;6189;52.526;13.390;2022-09-09T15:46:19;23.10;99.90
12254;DHT22;6189;52.526;13.390;2022-09-09T15:49:10;23.00;99.90
12254;DHT22;6189;52.526;13.390;2022-09-09T15:51:58;23.00;99.90
12254;DHT22;6189;52.526;13.390;2022-09-09T15:54:47;23.00;99.90
12254;DHT22;6189;52.526;13.390;2022-09-09T15:57:35;23.00;99.90
12254;DHT22;6189;52.526;13.390;2022-09-09T16:00:21;23.00;99.90
12254;DHT22;6189;52.526;13.390;2022-09-09T16:03:08;23.00;99.90
12254;DHT22;6189;52.526;13.390;2022-09-09T16:05:53;23.00;99.90
12254;DHT22;6189;52.526;13.390;2022-09-09T16:08:40;22.90;99.90
12254;DHT22;6189;52.526;13.390;2022-09-09T16:11:28;22.90;99.90
12254;DHT22;6189;52.526;13.390;2022-09-09T16:14:15;22.90;99.90
12254;DHT22;6189;52.526;13.390;2022-09-09T16:17:02;22.90;99.90
12254;DHT22;6189;52.526;13.390;2022-09-09T16:19:49;22.80;99.90
12254;DHT22;6189;52.526;13.390;2022-09-09T16:22:34;22.90;99.90
12254;DHT22;6189;52.526;13.390;2022-09-09T16:25:20;22.90;99.90
12254;DHT22;6189;52.526;13.390;2022-09-09T16:28:06;22.80;99.90
12254;DHT22;6189;52.526;13.390;2022-09-09T16:30:52;22.80;99.90
12254;DHT22;6189;52.526;13.390;2022-09-09T16:33:38;22.80;99.90
12254;DHT22;6189;52.526;13.390;2022-09-09T16:36:25;22.70;99.90
12254;DHT22;6189;52.526;13.390;2022-09-09T16:39:12;22.70;99.90
12254;DHT22;6189;52.526;13.390;2022-09-09T16:41:57;22.70;99.90
12254;DHT22;6189;52.526;13.390;2022-09-09T16:44:44;22.70;99.90
12254;DHT22;6189;52.526;13.390;2022-09-09T16:47:31;22.70;99.90
12254;DHT22;6189;52.526;13.390;2022-09-09T16:50:16;22.70;99.90
12254;DHT22;6189;52.526;13.390;2022-09-09T16:53:01;22.70;99.90
12254;DHT22;6189;52.526;13.390;2022-09-09T16:55:50;22.70;99.90
12254;DHT22;6189;52.526;13.390;2022-09-09T16:58:36;22.70;99.90
12254;DHT22;6189;52.526;13.390;2022-09-09T17:01:22;22.70;99.90
12254;DHT22;6189;52.526;13.390;2022-09-09T17:04:10;22.60;99.90
12254;DHT22;6189;52.526;13.390;2022-09-09T17:06:57;22.60;99.90
12254;DHT22;6189;52.526;13.390;2022-09-09T17:09:44;22.50;99.90
12254;DHT22;6189;52.526;13.390;2022-09-09T17:12:30;22.50;99.90
12254;DHT22;6189;52.526;13.390;2022-09-09T17:15:15;22.60;99.90
12254;DHT22;6189;52.526;13.390;2022-09-09T17:18:02;22.60;99.90
12254;DHT22;6189;52.526;13.390;2022-09-09T17:20:48;22.50;99.90
12254;DHT22;6189;52.526;13.390;2022-09-09T17:23:34;22.50;99.90
12254;DHT22;6189;52.526;13.390;2022-09-09T17:26:24;22.40;99.90
12254;DHT22;6189;52.526;13.390;2022-09-09T17:29:10;22.40;99.90
12254;DHT22;6189;52.526;13.390;2022-09-09T17:31:56;22.40;99.90
12254;DHT22;6189;52.526;13.390;2022-09-09T17:34:41;22.30;99.90
12254;DHT22;6189;52.526;13.390;2022-09-09T17:37:28;22.30;99.90
12254;DHT22;6189;52.526;13.390;2022-09-09T17:40:14;22.20;99.90
12254;DHT22;6189;52.526;13.390;2022-09-09T17:43:00;22.20;99.90
12254;DHT22;6189;52.526;13.390;2022-09-09T17:45:45;22.10;99.90
12254;DHT22;6189;52.526;13.390;2022-09-09T17:48:30;22.10;99.90
12254;DHT22;6189;52.526;13.390;2022-09-09T17:51:18;22.10;99.90
12254;DHT22;6189;52.526;13.390;2022-09-09T17:54:07;22.00;99.90
12254;DHT22;6189;52.526;13.390;2022-09-09T17:56:53;21.90;99.90